Terminal Aerodrome Forecast
Issued by NWS

Home | Current Version | Previous Version | Text Only | Print | Product List | Glossary On
Versions: 1 2 3 4 5 6 7 8 9 10 11 12 13 14 15 16
068
FTUS43 KDLH 082024 AAA
TAFBRD
TAF AMD
KBRD 082024Z 0820/0918 33016G25KT 5SM -SN BLSN BKN025 OVC035
      TEMPO 0820/0823 2SM -SN BLSN SCT025 OVC035
     FM082300 33014G21KT P6SM BKN030
     FM090600 33012G19KT P6SM SCT030
     FM091500 34010KT P6SM SCT025=

USA.gov is the U.S. government's official web portal to all federal, state and local government web resources and services.